Time;durP1;ratioP1;P1;durP2;ratioP2;P2;SDS_P1;SDS_P2;PMS_P1;PMS_P2;Temp;Humidity;BMP_temperature;BMP_pressure;BME280_temperature;BME280_humidity;BME280_pressure;Samples;Min_cycle;Max_cycle;Signal;HPM_P1;HPM_P2
2021/12/24 00:01:13;;;;;;;29.90;21.90;;;;;;;0.89;69.41;99804.72;4995010;28;20642;-43
2021/12/24 00:03:42;;;;;;;32.57;23.17;;;;;;;0.86;68.21;99812.06;4996107;28;20434;-43
2021/12/24 00:06:12;;;;;;;27.93;20.53;;;;;;;0.76;65.17;99812.19;4995620;28;20537;-41
2021/12/24 00:08:40;;;;;;;36.60;23.93;;;;;;;0.74;62.97;99811.53;4995808;28;20488;-40
2021/12/24 00:11:08;;;;;;;30.57;23.27;;;;;;;0.69;61.44;99810.34;4996313;28;20474;-40
2021/12/24 00:13:42;;;;;;;28.70;21.67;;;;;;;0.64;58.25;99817.84;4995757;28;20532;-44
2021/12/24 00:16:18;;;;;;;36.10;23.60;;;;;;;0.66;56.87;99826.41;5000991;28;20825;-40
2021/12/24 00:18:52;;;;;;;33.40;23.20;;;;;;;0.62;54.93;99827.69;5013809;28;20478;-44
2021/12/24 00:35:28;;;;;;;38.00;24.30;;;;;;;0.64;49.66;99823.09;5015206;28;20933;-41
2021/12/24 00:38:01;;;;;;;37.03;24.53;;;;;;;0.65;49.87;99827.38;5014647;28;20966;-40
2021/12/24 00:40:29;;;;;;;39.37;24.93;;;;;;;0.66;49.40;99811.47;5015310;28;20451;-42
2021/12/24 00:42:57;;;;;;;33.70;24.07;;;;;;;0.67;49.45;99814.91;5014751;28;21013;-40
2021/12/24 00:45:28;;;;;;;35.33;24.00;;;;;;;0.68;49.63;99811.31;5015059;28;20441;-43
2021/12/24 00:47:57;;;;;;;36.17;24.60;;;;;;;0.72;49.18;99815.28;5014339;28;21071;-40
2021/12/24 00:50:30;;;;;;;52.63;28.20;;;;;;;0.74;49.38;99805.44;5014996;28;20433;-40
2021/12/24 00:53:02;;;;;;;52.03;28.10;;;;;;;0.71;49.51;99814.47;5014792;28;20528;-40
2021/12/24 00:55:30;;;;;;;33.50;25.00;;;;;;;0.64;48.85;99820.47;5014943;28;20881;-40
2021/12/24 00:58:03;;;;;;;43.33;25.10;;;;;;;0.62;48.66;99819.81;5014245;28;20461;-43
2021/12/24 01:00:33;;;;;;;40.50;23.90;;;;;;;0.61;47.52;99815.53;5014719;28;20429;-41
2021/12/24 01:03:03;;;;;;;45.67;25.83;;;;;;;0.68;46.55;99812.16;5014833;28;20443;-42
2021/12/24 01:05:33;;;;;;;33.63;24.30;;;;;;;0.66;46.87;99813.28;5014807;28;21018;-42
2021/12/24 01:08:02;;;;;;;39.10;25.10;;;;;;;0.67;46.66;99813.13;5014027;28;20556;-44
2021/12/24 01:10:32;;;;;;;42.20;23.97;;;;;;;0.64;46.56;99816.06;5014545;28;20956;-40
2021/12/24 01:13:01;;;;;;;43.07;23.63;;;;;;;0.65;46.92;99815.09;5013532;28;20444;-46
2021/12/24 01:15:29;;;;;;;44.33;25.40;;;;;;;0.65;46.27;99811.63;5014733;28;20444;-45
2021/12/24 01:17:59;;;;;;;40.00;24.20;;;;;;;0.62;45.06;99814.56;5013603;28;20472;-41
2021/12/24 01:20:37;;;;;;;37.93;24.63;;;;;;;0.64;44.81;99815.22;5014484;28;20439;-43
2021/12/24 01:23:28;;;;;;;41.67;23.67;;;;;;;0.57;45.71;99811.59;5015246;28;20527;-41
2021/12/24 01:26:00;;;;;;;45.63;23.90;;;;;;;0.60;44.42;99808.66;5013925;28;20433;-43
2021/12/24 01:39:41;;;;;;;103.30;32.20;;;;;;;0.51;39.25;99792.84;5013954;28;20948;-43
2021/12/24 01:44:55;;;;;;;57.10;24.67;;;;;;;0.47;38.33;99799.41;5014163;28;20425;-45
2021/12/24 01:47:23;;;;;;;47.47;26.70;;;;;;;0.48;38.01;99797.59;5013429;28;20476;-44
2021/12/24 01:49:51;;;;;;;48.63;26.33;;;;;;;0.45;37.32;99796.09;5013797;28;20812;-42
2021/12/24 01:52:19;;;;;;;53.60;23.57;;;;;;;0.42;36.26;99795.56;5013756;28;20521;-43
2021/12/24 01:54:48;;;;;;;84.03;29.80;;;;;;;0.48;36.04;99808.06;5012855;28;20433;-41
2021/12/24 01:57:16;;;;;;;62.53;26.90;;;;;;;0.51;35.40;99800.72;5012357;28;20832;-40
2021/12/24 01:59:44;;;;;;;66.83;27.93;;;;;;;0.57;36.33;99791.41;5013104;28;21124;-41
2021/12/24 02:02:11;;;;;;;89.33;30.73;;;;;;;0.55;36.48;99820.44;5012836;28;20969;-43
2021/12/24 02:04:39;;;;;;;49.93;25.50;;;;;;;0.56;36.49;99813.38;5012883;28;20850;-43
2021/12/24 02:07:07;;;;;;;64.50;27.00;;;;;;;0.52;37.39;99831.22;5013068;28;20479;-43
2021/12/24 02:09:36;;;;;;;89.93;32.97;;;;;;;0.54;37.31;99837.13;5013550;28;20477;-42
2021/12/24 02:12:08;;;;;;;55.63;28.40;;;;;;;0.57;37.45;99836.00;5013603;28;20527;-41
2021/12/24 02:14:38;;;;;;;43.77;25.37;;;;;;;0.56;37.63;99837.00;5013149;28;20500;-46
2021/12/24 02:17:28;;;;;;;42.27;26.43;;;;;;;0.53;38.54;99838.13;5012554;28;20462;-43
2021/12/24 02:28:22;;;;;;;40.20;24.90;;;;;;;0.68;37.91;99845.44;4993236;28;20446;-42
2021/12/24 02:30:50;;;;;;;38.23;24.13;;;;;;;0.69;39.43;99839.22;4993306;28;20487;-43
2021/12/24 02:33:18;;;;;;;38.77;23.17;;;;;;;0.71;39.57;99839.88;4993320;28;20436;-43
2021/12/24 02:35:47;;;;;;;42.53;24.77;;;;;;;0.71;40.85;99834.63;4992943;28;20442;-42
2021/12/24 02:38:16;;;;;;;40.27;23.87;;;;;;;0.61;41.64;99826.84;4993273;28;20549;-42
2021/12/24 02:40:44;;;;;;;41.23;23.80;;;;;;;0.64;40.35;99831.78;4993290;28;20524;-41
2021/12/24 02:43:15;;;;;;;37.37;22.90;;;;;;;0.67;39.57;99846.41;4993309;28;20805;-40
2021/12/24 02:45:45;;;;;;;39.73;24.00;;;;;;;0.71;38.81;99845.13;4993307;28;20444;-41
2021/12/24 02:48:56;;;;;;;47.30;25.13;;;;;;;0.73;39.62;99841.34;4992689;28;21026;-40
2021/12/24 02:54:14;;;;;;;45.87;24.50;;;;;;;0.80;40.02;99831.91;4992801;28;20984;-41
2021/12/24 02:56:47;;;;;;;53.13;25.47;;;;;;;0.80;40.31;99817.94;4992336;28;20910;-41
2021/12/24 02:59:17;;;;;;;47.47;26.20;;;;;;;0.82;41.44;99815.97;4992886;28;20867;-41
2021/12/24 03:01:47;;;;;;;93.53;31.20;;;;;;;0.87;39.92;99803.19;4993084;28;20438;-43
2021/12/24 03:04:15;;;;;;;101.47;34.63;;;;;;;0.86;41.74;99785.81;4992806;28;20533;-42
2021/12/24 03:06:47;;;;;;;55.37;28.17;;;;;;;0.90;41.06;99806.34;4992487;28;21092;-42
2021/12/24 03:09:17;;;;;;;72.20;27.50;;;;;;;0.89;42.97;99812.59;4992757;28;20482;-42
2021/12/24 03:11:46;;;;;;;90.60;29.70;;;;;;;0.89;42.89;99802.09;4992747;28;20440;-39
2021/12/24 03:14:18;;;;;;;100.10;34.43;;;;;;;0.94;42.72;99801.59;4993030;28;20430;-39
2021/12/24 03:16:52;;;;;;;88.77;29.50;;;;;;;0.96;42.03;99802.25;5000830;28;21053;-39
2021/12/24 03:19:24;;;;;;;57.60;26.33;;;;;;;1.02;41.94;99801.63;5012579;28;20424;-39
2021/12/24 03:21:57;;;;;;;75.40;27.30;;;;;;;1.04;42.97;99810.19;5012182;28;20425;-39
2021/12/24 03:24:37;;;;;;;128.63;34.87;;;;;;;1.06;44.14;99809.03;5012309;28;20437;-39
2021/12/24 03:27:07;;;;;;;91.07;29.83;;;;;;;1.04;44.20;99803.13;5011315;28;20465;-40
2021/12/24 03:29:35;;;;;;;191.33;44.33;;;;;;;1.05;45.67;99810.00;5011787;28;20479;-39
2021/12/24 03:32:04;;;;;;;72.17;27.80;;;;;;;1.09;44.23;99811.34;5011898;28;20447;-39
2021/12/24 03:34:32;;;;;;;95.17;29.67;;;;;;;1.06;45.56;99827.41;5011901;28;20439;-39
2021/12/24 03:37:02;;;;;;;94.30;32.00;;;;;;;1.06;46.13;99824.78;5011544;28;20476;-39
2021/12/24 03:39:29;;;;;;;103.33;30.80;;;;;;;1.04;47.17;99836.44;5012611;28;20536;-39
2021/12/24 03:41:57;;;;;;;113.87;32.63;;;;;;;1.00;47.56;99840.34;5012081;28;20425;-39
2021/12/24 03:44:32;;;;;;;119.77;36.13;;;;;;;0.96;47.92;99852.97;5011832;28;21049;-39
2021/12/24 03:47:06;;;;;;;95.83;33.40;;;;;;;0.97;47.17;99848.53;5011499;28;20887;-39
2021/12/24 03:49:37;;;;;;;313.87;57.97;;;;;;;0.92;47.49;99833.28;5011839;28;20433;-39
2021/12/24 03:52:20;;;;;;;220.77;46.53;;;;;;;0.92;46.25;99832.44;5011965;28;20533;-40
2021/12/24 03:54:56;;;;;;;196.23;44.63;;;;;;;0.90;45.55;99831.75;5011672;28;20435;-39
2021/12/24 03:57:25;;;;;;;130.77;37.23;;;;;;;0.88;44.26;99837.19;5011403;28;20475;-39
2021/12/24 03:59:53;;;;;;;221.10;52.87;;;;;;;0.89;44.38;99833.59;5011816;28;20443;-39
2021/12/24 04:02:20;;;;;;;139.43;40.33;;;;;;;0.90;44.63;99843.09;5011772;28;20442;-39
2021/12/24 04:04:49;;;;;;;67.97;31.23;;;;;;;0.88;44.71;99845.06;5011626;28;20499;-40
2021/12/24 04:07:19;;;;;;;72.47;31.87;;;;;;;0.90;43.94;99831.75;5011102;28;20485;-39
2021/12/24 04:09:56;;;;;;;54.87;31.00;;;;;;;0.88;43.96;99842.44;5011949;28;20471;-40
2021/12/24 04:12:24;;;;;;;76.07;35.23;;;;;;;0.80;45.43;99849.44;5010278;28;20447;-39
2021/12/24 04:14:53;;;;;;;80.40;34.50;;;;;;;0.77;44.69;99841.88;5010187;28;20437;-39
2021/12/24 04:17:20;;;;;;;72.10;32.23;;;;;;;0.75;43.51;99835.94;5010195;28;20468;-39
2021/12/24 04:25:20;;;;;;;56.93;29.87;;;;;;;0.72;41.47;99838.91;5010659;28;20427;-39
2021/12/24 04:27:49;;;;;;;110.03;39.20;;;;;;;0.72;41.59;99829.22;5009962;28;21051;-38
2021/12/24 04:30:22;;;;;;;91.90;35.20;;;;;;;0.71;40.55;99819.72;5010657;28;20484;-39
2021/12/24 04:32:59;;;;;;;134.27;41.97;;;;;;;0.72;39.84;99834.44;5010827;28;20864;-40
2021/12/24 04:35:39;;;;;;;99.10;36.67;;;;;;;0.74;39.84;99839.56;5010681;28;20423;-39
2021/12/24 04:38:26;;;;;;;129.03;40.57;;;;;;;0.72;39.26;99846.78;5009991;28;20476;-39
2021/12/24 04:52:00;;;;;;;116.37;36.60;;;;;;;0.73;39.18;99861.53;5013410;28;20491;-39
2021/12/24 05:02:56;;;;;;;118.60;39.90;;;;;;;0.72;39.35;99879.06;5012977;28;20429;-38
2021/12/24 05:05:27;;;;;;;93.20;36.57;;;;;;;0.74;39.36;99882.38;5013385;28;20417;-39
2021/12/24 05:10:54;;;;;;;76.97;33.97;;;;;;;0.73;37.82;99895.63;4933200;29;21369;-38
2021/12/24 05:13:23;;;;;;;96.70;36.10;;;;;;;0.74;37.59;99902.53;4995525;28;20535;-39
2021/12/24 05:15:57;;;;;;;110.97;39.20;;;;;;;0.73;37.70;99906.13;5012691;28;20437;-39
2021/12/24 05:18:35;;;;;;;94.27;36.43;;;;;;;0.72;37.07;99907.13;5013100;28;20465;-40
2021/12/24 05:23:48;;;;;;;98.50;37.33;;;;;;;0.68;37.49;99908.41;5013663;28;20414;-40
2021/12/24 05:26:18;;;;;;;90.07;36.00;;;;;;;0.71;38.16;99903.69;5013018;28;20825;-40
2021/12/24 05:28:46;;;;;;;86.67;33.07;;;;;;;0.68;38.27;99897.91;5013392;28;21037;-40
2021/12/24 05:31:14;;;;;;;98.03;36.20;;;;;;;0.66;38.87;99913.78;5013288;28;20805;-40
2021/12/24 05:33:42;;;;;;;65.70;30.60;;;;;;;0.64;39.51;99907.88;5012781;28;20445;-40
2021/12/24 05:36:10;;;;;;;83.20;33.93;;;;;;;0.61;39.26;99912.59;5011974;28;20547;-40
2021/12/24 05:38:37;;;;;;;66.27;29.70;;;;;;;0.62;39.68;99914.25;5012681;28;20463;-42
2021/12/24 05:41:05;;;;;;;69.33;31.50;;;;;;;0.57;39.79;99923.41;5013253;28;20796;-39
2021/12/24 05:43:34;;;;;;;63.17;29.80;;;;;;;0.60;40.33;99916.22;5013181;28;20437;-40
2021/12/24 05:46:02;;;;;;;63.47;32.67;;;;;;;0.64;40.06;99907.06;5012411;28;20426;-41
2021/12/24 05:48:30;;;;;;;72.00;30.43;;;;;;;0.70;40.50;99901.19;5013436;28;20453;-40
2021/12/24 05:50:58;;;;;;;52.43;27.87;;;;;;;0.67;41.51;99901.50;5012674;28;20477;-40
2021/12/24 05:53:26;;;;;;;51.37;26.50;;;;;;;0.73;42.15;99890.38;5012637;28;20432;-39
2021/12/24 05:55:54;;;;;;;48.23;27.43;;;;;;;0.73;42.68;99887.75;5012330;28;20453;-40
2021/12/24 05:58:21;;;;;;;48.80;29.10;;;;;;;0.77;42.62;99883.88;5012661;28;20453;-40
2021/12/24 06:00:51;;;;;;;55.50;26.33;;;;;;;0.75;44.78;99873.50;5011730;28;20447;-40
2021/12/24 06:03:19;;;;;;;51.33;27.67;;;;;;;0.74;46.75;99879.75;5013175;28;20433;-39
2021/12/24 06:05:47;;;;;;;59.53;28.90;;;;;;;0.79;46.58;99871.41;5012220;28;20456;-40
2021/12/24 06:08:14;;;;;;;51.27;27.57;;;;;;;0.80;46.38;99867.81;5012825;28;20461;-40
2021/12/24 06:10:43;;;;;;;43.93;24.90;;;;;;;0.79;48.50;99859.09;5012162;28;21008;-41
2021/12/24 06:13:11;;;;;;;47.50;27.97;;;;;;;0.78;51.44;99862.69;5012475;28;20450;-39
2021/12/24 06:15:44;;;;;;;45.80;25.60;;;;;;;0.78;51.34;99857.44;5012810;28;20520;-40
2021/12/24 06:18:21;;;;;;;40.77;25.10;;;;;;;0.77;52.36;99866.31;5012314;28;20878;-40
2021/12/24 06:20:49;;;;;;;44.37;25.73;;;;;;;0.78;53.66;99862.69;5012478;28;20429;-40
2021/12/24 06:23:19;;;;;;;47.17;26.63;;;;;;;0.77;54.33;99858.44;5012607;28;20437;-40
2021/12/24 06:25:46;;;;;;;42.53;23.40;;;;;;;0.80;53.92;99863.38;5012209;28;20500;-40
2021/12/24 06:28:14;;;;;;;47.00;27.90;;;;;;;0.78;55.96;99857.44;5012107;28;20535;-40
2021/12/24 06:30:42;;;;;;;49.30;26.00;;;;;;;0.77;56.64;99868.13;5012403;28;20447;-40
2021/12/24 06:33:10;;;;;;;42.33;27.13;;;;;;;0.75;57.19;99867.44;5012136;28;20528;-40
2021/12/24 06:35:40;;;;;;;43.30;25.10;;;;;;;0.76;57.39;99869.09;5011849;28;20860;-39
2021/12/24 06:38:08;;;;;;;42.63;26.30;;;;;;;0.78;57.12;99869.75;5010534;28;20469;-40
2021/12/24 06:40:36;;;;;;;43.20;27.13;;;;;;;0.80;57.79;99870.44;5011443;28;20460;-40
2021/12/24 06:43:04;;;;;;;48.97;26.40;;;;;;;0.80;58.76;99870.44;5010996;28;20528;-40
2021/12/24 06:45:33;;;;;;;48.97;25.57;;;;;;;0.81;59.46;99867.63;5011285;28;20442;-41
2021/12/24 06:48:03;;;;;;;49.10;28.93;;;;;;;0.84;59.55;99863.88;5011544;28;20472;-40
2021/12/24 06:50:31;;;;;;;49.23;28.63;;;;;;;0.88;59.87;99859.97;5011718;28;20441;-40
2021/12/24 06:53:01;;;;;;;46.97;27.77;;;;;;;0.88;60.13;99862.59;5011603;28;20552;-40
2021/12/24 06:55:29;;;;;;;50.00;29.30;;;;;;;0.86;62.50;99862.75;5011103;28;20438;-40
2021/12/24 06:57:57;;;;;;;46.80;27.97;;;;;;;0.84;64.37;99856.81;5011068;28;21001;-40
2021/12/24 07:00:26;;;;;;;47.10;28.60;;;;;;;0.78;65.33;99849.56;5010588;28;20849;-40
2021/12/24 07:02:54;;;;;;;52.50;29.63;;;;;;;0.75;65.80;99855.13;5010294;28;20524;-40
2021/12/24 07:05:22;;;;;;;47.67;28.10;;;;;;;0.83;62.82;99849.13;5010336;28;20429;-40
2021/12/24 07:07:49;;;;;;;50.27;30.07;;;;;;;0.84;64.19;99853.38;5010109;28;20480;-40
2021/12/24 07:10:18;;;;;;;51.77;28.47;;;;;;;0.89;64.58;99859.00;5009736;28;20957;-40
2021/12/24 07:12:46;;;;;;;43.93;25.77;;;;;;;0.93;64.15;99847.19;5010329;28;20495;-41
2021/12/24 07:15:16;;;;;;;49.73;32.10;;;;;;;0.95;64.34;99864.47;5010425;28;20544;-41
2021/12/24 07:17:44;;;;;;;47.37;27.83;;;;;;;0.94;66.76;99864.59;5008459;28;20516;-42
2021/12/24 07:20:12;;;;;;;47.40;27.80;;;;;;;0.98;65.91;99864.16;5010473;28;20792;-40
2021/12/24 07:22:40;;;;;;;55.90;29.00;;;;;;;1.03;65.56;99863.66;5010229;28;20523;-42
2021/12/24 07:25:09;;;;;;;52.27;32.40;;;;;;;1.07;66.35;99872.88;5009437;28;20437;-41
2021/12/24 07:27:38;;;;;;;50.93;29.77;;;;;;;1.10;67.98;99869.94;5009335;28;21096;-40
2021/12/24 07:30:11;;;;;;;42.80;26.53;;;;;;;1.11;69.82;99866.31;5010077;28;20528;-40
2021/12/24 07:32:39;;;;;;;62.73;31.03;;;;;;;1.11;72.55;99869.78;5009917;28;20461;-40
2021/12/24 07:35:08;;;;;;;47.40;28.57;;;;;;;1.13;73.99;99880.13;5010048;28;20528;-40
2021/12/24 07:37:36;;;;;;;64.50;32.50;;;;;;;1.08;77.08;99891.09;5009520;28;20476;-39
2021/12/24 07:40:05;;;;;;;54.23;31.93;;;;;;;1.13;75.36;99890.63;5010215;28;21024;-39
2021/12/24 07:42:33;;;;;;;68.63;36.30;;;;;;;1.15;75.33;99901.78;5010265;28;20424;-40
2021/12/24 07:45:04;;;;;;;60.20;29.70;;;;;;;1.20;74.28;99896.88;5010653;28;20439;-41
2021/12/24 07:47:36;;;;;;;46.10;26.97;;;;;;;1.24;74.05;99892.97;5010520;28;20516;-40
2021/12/24 07:50:17;;;;;;;62.00;33.07;;;;;;;1.27;74.32;99899.72;5011169;28;20429;-39
2021/12/24 07:52:45;;;;;;;70.50;34.90;;;;;;;1.30;75.37;99907.28;5011082;28;20546;-41
2021/12/24 07:55:13;;;;;;;57.73;32.90;;;;;;;1.31;76.94;99916.81;5010798;28;20469;-42
2021/12/24 07:57:48;;;;;;;60.00;32.60;;;;;;;1.32;78.70;99923.69;5010682;28;20559;-40
2021/12/24 08:00:19;;;;;;;63.90;32.20;;;;;;;1.35;77.47;99921.56;5011117;28;20925;-40
2021/12/24 08:02:47;;;;;;;50.17;29.17;;;;;;;1.36;78.71;99917.97;5010511;28;20439;-39
2021/12/24 08:05:17;;;;;;;54.23;29.93;;;;;;;1.39;78.19;99908.94;5010816;28;20776;-40
2021/12/24 08:07:45;;;;;;;53.17;31.60;;;;;;;1.40;79.00;99908.00;5010243;28;20461;-40
2021/12/24 08:10:12;;;;;;;48.23;29.57;;;;;;;1.42;79.08;99906.84;5010996;28;20435;-39
2021/12/24 08:12:40;;;;;;;55.63;30.03;;;;;;;1.46;78.57;99902.09;5010342;28;20990;-39
2021/12/24 08:15:08;;;;;;;70.53;34.30;;;;;;;1.46;80.50;99904.72;5010531;28;20467;-40
2021/12/24 08:17:38;;;;;;;61.40;33.10;;;;;;;1.48;81.90;99895.69;5009820;28;20469;-40
2021/12/24 08:20:08;;;;;;;55.20;30.20;;;;;;;1.50;81.64;99896.34;5011317;28;20431;-40
2021/12/24 08:22:36;;;;;;;50.00;29.50;;;;;;;1.55;82.10;99898.53;5013839;28;20438;-39
2021/12/24 08:25:05;;;;;;;53.80;30.70;;;;;;;1.55;83.02;99895.91;5013967;28;20433;-39
2021/12/24 08:27:33;;;;;;;59.53;33.43;;;;;;;1.57;82.85;99905.25;5013590;28;20802;-39
2021/12/24 08:30:01;;;;;;;73.57;36.20;;;;;;;1.59;83.27;99902.47;5014316;28;20437;-39
2021/12/24 08:32:29;;;;;;;72.13;35.27;;;;;;;1.58;85.45;99904.25;5014393;28;20564;-40
2021/12/24 08:34:58;;;;;;;61.27;35.60;;;;;;;1.63;84.76;99898.53;5013839;28;20433;-39
2021/12/24 08:37:26;;;;;;;67.43;33.87;;;;;;;1.64;85.03;99900.19;5013888;28;20465;-39
2021/12/24 08:39:53;;;;;;;56.80;32.33;;;;;;;1.64;85.76;99900.19;5014336;28;20441;-39
2021/12/24 08:42:21;;;;;;;61.60;33.30;;;;;;;1.68;85.26;99901.50;5014352;28;20536;-38
2021/12/24 08:44:49;;;;;;;53.90;32.20;;;;;;;1.74;84.74;99902.66;5013412;28;20525;-39
2021/12/24 08:47:16;;;;;;;59.00;33.03;;;;;;;1.79;84.88;99897.75;5013684;28;20483;-39
2021/12/24 08:49:44;;;;;;;51.30;32.00;;;;;;;1.81;85.53;99893.97;5014502;28;20437;-40
2021/12/24 08:52:13;;;;;;;66.27;32.80;;;;;;;1.85;85.83;99894.50;5013859;28;20477;-40
2021/12/24 08:54:42;;;;;;;56.17;32.43;;;;;;;1.79;89.48;99921.41;5013692;28;20796;-40
2021/12/24 08:57:09;;;;;;;70.23;37.60;;;;;;;1.78;89.22;99919.75;5013261;28;20572;-42
2021/12/24 08:59:37;;;;;;;52.40;33.60;;;;;;;1.77;89.14;99931.25;5013699;28;20440;-39
2021/12/24 09:02:05;;;;;;;62.30;36.80;;;;;;;1.70;89.99;99941.59;5013092;28;20449;-40
2021/12/24 09:04:33;;;;;;;55.37;31.20;;;;;;;1.63;90.72;99941.41;5013558;28;20469;-41
2021/12/24 09:07:00;;;;;;;44.20;29.80;;;;;;;1.56;89.73;99952.69;5013212;28;21045;-40
2021/12/24 09:09:29;;;;;;;59.87;29.43;;;;;;;1.45;89.73;99961.69;5014120;28;20860;-42
2021/12/24 09:11:58;;;;;;;55.53;30.00;;;;;;;1.21;88.94;99956.31;5013552;28;20901;-39
2021/12/24 09:14:26;;;;;;;51.43;31.73;;;;;;;1.22;87.17;99965.84;5013103;28;20473;-41
2021/12/24 09:16:54;;;;;;;58.50;31.77;;;;;;;1.18;85.75;99977.63;5012751;28;20990;-39
2021/12/24 09:19:25;;;;;;;45.93;28.67;;;;;;;1.08;85.46;99975.09;5013501;28;20915;-41
2021/12/24 09:21:55;;;;;;;59.47;33.47;;;;;;;1.13;83.59;99969.41;4987438;28;20467;-39
2021/12/24 09:24:24;;;;;;;50.20;30.70;;;;;;;1.04;83.37;99971.16;5012924;28;20414;-39
2021/12/24 09:26:56;;;;;;;53.57;28.80;;;;;;;1.12;81.00;99967.75;5012976;28;20935;-39
2021/12/24 09:29:25;;;;;;;52.40;29.30;;;;;;;1.26;79.71;99971.59;5013542;28;20420;-39
2021/12/24 09:31:53;;;;;;;48.17;27.80;;;;;;;1.20;83.48;99972.22;5012999;28;21081;-39
2021/12/24 09:34:22;;;;;;;52.57;29.77;;;;;;;1.20;84.13;99988.78;5012169;28;20480;-41
2021/12/24 09:36:49;;;;;;;48.00;29.20;;;;;;;1.15;84.16;99990.25;5013487;28;20432;-39
2021/12/24 09:39:17;;;;;;;47.13;26.00;;;;;;;1.11;83.66;99992.34;5013074;28;20437;-39
2021/12/24 09:41:46;;;;;;;48.20;29.07;;;;;;;1.05;82.99;99992.97;5012229;28;20891;-40
2021/12/24 09:44:15;;;;;;;54.57;29.23;;;;;;;1.02;81.67;99990.66;5012779;28;20448;-39
2021/12/24 09:46:43;;;;;;;49.70;28.93;;;;;;;1.01;80.70;99989.00;5013219;28;20440;-39
2021/12/24 09:49:14;;;;;;;46.40;27.07;;;;;;;0.99;79.61;99993.56;5013211;28;20433;-39
2021/12/24 09:51:45;;;;;;;44.07;26.60;;;;;;;1.09;78.56;99994.31;5012040;28;20459;-39
2021/12/24 09:54:15;;;;;;;53.10;28.10;;;;;;;1.22;78.30;99994.75;5013060;28;20793;-40
2021/12/24 09:56:45;;;;;;;53.90;28.13;;;;;;;1.24;79.93;99998.03;5012915;28;20508;-39
2021/12/24 09:59:12;;;;;;;62.07;27.87;;;;;;;1.28;82.59;99993.28;5013194;28;20425;-40
2021/12/24 10:01:44;;;;;;;43.53;26.57;;;;;;;1.40;82.37;99999.94;5011653;28;21006;-40
2021/12/24 10:04:14;;;;;;;46.77;28.50;;;;;;;1.45;83.48;100003.72;5012369;28;20433;-39
2021/12/24 10:06:51;;;;;;;41.93;24.40;;;;;;;1.55;84.14;100001.00;5013027;28;20410;-39
2021/12/24 10:09:18;;;;;;;41.87;26.73;;;;;;;1.69;84.03;99992.50;5012880;28;20908;-39
2021/12/24 10:11:49;;;;;;;46.17;26.63;;;;;;;1.70;87.77;100001.22;5011989;28;20471;-39
2021/12/24 10:14:20;;;;;;;42.63;26.17;;;;;;;1.83;86.58;100001.59;5012186;28;20479;-39
2021/12/24 10:16:51;;;;;;;45.77;27.43;;;;;;;1.86;89.62;100009.16;5012504;28;20513;-39
2021/12/24 10:19:20;;;;;;;46.90;27.43;;;;;;;1.79;91.27;100014.25;5012976;28;20421;-40
2021/12/24 10:21:56;;;;;;;53.70;27.80;;;;;;;1.73;92.14;100017.50;5011812;28;20471;-40
2021/12/24 10:24:26;;;;;;;47.40;25.93;;;;;;;1.59;91.43;100016.28;5012063;28;20539;-39
2021/12/24 10:26:56;;;;;;;52.70;29.40;;;;;;;1.54;90.37;100023.00;5011799;28;20479;-39
2021/12/24 10:29:30;;;;;;;41.67;24.93;;;;;;;1.47;88.36;100033.28;5011246;28;20433;-39
2021/12/24 10:32:07;;;;;;;45.37;24.73;;;;;;;1.43;85.63;100031.97;5010746;28;20459;-39
2021/12/24 10:34:36;;;;;;;44.30;25.70;;;;;;;1.36;83.94;100036.19;5011476;28;20543;-41
2021/12/24 10:37:13;;;;;;;42.83;25.90;;;;;;;1.35;82.55;100049.47;5011908;28;20970;-39
2021/12/24 10:39:44;;;;;;;45.80;25.10;;;;;;;1.33;82.16;100038.28;5012485;28;20409;-39
2021/12/24 10:42:18;;;;;;;32.10;22.50;;;;;;;1.31;81.05;100056.03;5011758;28;20472;-39
2021/12/24 10:44:48;;;;;;;38.67;22.53;;;;;;;1.22;81.09;100051.69;5010782;28;20414;-39
2021/12/24 10:47:20;;;;;;;45.70;24.13;;;;;;;1.17;80.97;100046.06;5012090;28;20515;-39
2021/12/24 10:50:05;;;;;;;39.17;25.37;;;;;;;1.09;81.84;100065.22;5012304;28;20521;-40
2021/12/24 10:55:44;;;;;;;29.53;21.87;;;;;;;1.07;82.12;100069.78;5011635;28;20792;-40
2021/12/24 10:58:16;;;;;;;28.83;20.17;;;;;;;1.07;85.23;100061.91;5012373;28;20536;-40
2021/12/24 11:00:48;;;;;;;30.80;19.30;;;;;;;1.13;86.95;100063.94;5011698;28;20827;-40
2021/12/24 11:03:22;;;;;;;23.60;16.73;;;;;;;1.10;89.31;100072.13;5010870;28;20481;-40
2021/12/24 11:05:52;;;;;;;23.90;16.43;;;;;;;1.09;91.56;100083.59;5011136;28;20430;-40
2021/12/24 11:08:21;;;;;;;21.90;15.50;;;;;;;1.09;92.81;100075.72;5011696;28;20549;-40
2021/12/24 11:10:51;;;;;;;22.07;14.10;;;;;;;1.13;93.47;100082.31;5010926;28;20449;-39
2021/12/24 11:13:21;;;;;;;19.00;13.20;;;;;;;1.07;94.33;100082.94;5010461;28;20839;-40
2021/12/24 11:15:51;;;;;;;16.70;12.53;;;;;;;1.09;94.37;100094.09;5008826;28;20443;-41
2021/12/24 11:18:24;;;;;;;13.77;12.37;;;;;;;1.03;94.86;100102.56;4999792;28;20465;-39
2021/12/24 11:20:55;;;;;;;15.00;13.17;;;;;;;1.07;95.12;100112.63;4992107;28;20417;-39
2021/12/24 11:23:24;;;;;;;14.40;12.00;;;;;;;1.16;94.65;100108.28;4991123;28;20462;-39
2021/12/24 11:25:54;;;;;;;12.93;11.20;;;;;;;1.21;94.76;100111.25;4991499;28;20422;-40
2021/12/24 11:28:24;;;;;;;12.57;11.27;;;;;;;1.24;94.64;100116.22;4991245;28;20545;-39
2021/12/24 11:30:54;;;;;;;12.90;11.60;;;;;;;1.26;94.41;100108.16;4991806;28;20453;-39
2021/12/24 11:33:26;;;;;;;16.87;12.03;;;;;;;1.28;94.87;100122.00;4990597;28;20489;-39
2021/12/24 11:35:56;;;;;;;13.47;12.10;;;;;;;1.28;94.68;100124.63;4990998;28;20556;-39
2021/12/24 11:38:25;;;;;;;12.60;11.30;;;;;;;1.27;95.06;100126.41;4991609;28;20468;-39
2021/12/24 11:40:57;;;;;;;14.50;12.10;;;;;;;1.25;95.18;100133.63;4991089;28;20517;-40
2021/12/24 11:43:28;;;;;;;14.37;12.73;;;;;;;1.29;95.11;100136.75;4990263;28;20554;-40
2021/12/24 11:45:57;;;;;;;14.33;12.07;;;;;;;1.27;94.79;100142.19;4990695;28;20439;-41
2021/12/24 11:48:30;;;;;;;13.53;12.03;;;;;;;1.27;94.56;100142.19;4987445;28;20458;-42
2021/12/24 11:50:59;;;;;;;20.10;14.63;;;;;;;1.18;95.00;100148.34;4990638;28;20428;-41
2021/12/24 11:53:27;;;;;;;13.13;11.73;;;;;;;1.22;94.59;100151.50;4990896;28;20454;-40
2021/12/24 11:55:55;;;;;;;16.17;13.23;;;;;;;1.21;94.21;100152.44;4987965;28;20439;-40
2021/12/24 11:58:25;;;;;;;16.70;13.43;;;;;;;1.19;93.76;100154.41;4992846;28;20460;-41
2021/12/24 12:00:55;;;;;;;14.80;13.23;;;;;;;1.12;93.43;100162.06;4995971;28;20824;-40
2021/12/24 12:03:36;;;;;;;11.33;10.23;;;;;;;1.15;93.02;100153.88;4995131;28;20871;-42
2021/12/24 12:06:07;;;;;;;14.10;11.20;;;;;;;1.13;93.17;100166.34;4995778;28;20430;-41
2021/12/24 12:08:38;;;;;;;14.90;12.10;;;;;;;1.13;92.49;100167.16;4996470;28;20545;-40
2021/12/24 12:11:23;;;;;;;14.77;10.87;;;;;;;1.20;92.56;100166.56;4995979;28;20434;-40
2021/12/24 12:13:55;;;;;;;13.03;11.63;;;;;;;1.08;92.36;100164.16;4995670;28;20450;-41
2021/12/24 12:16:25;;;;;;;16.63;9.63;;;;;;;1.11;92.89;100171.72;5002339;28;20429;-40
2021/12/24 12:19:12;;;;;;;10.30;9.37;;;;;;;1.21;92.96;100173.47;5012940;28;20457;-39
2021/12/24 12:21:42;;;;;;;10.63;9.10;;;;;;;1.18;94.09;100176.38;5013072;28;20452;-41
2021/12/24 12:27:00;;;;;;;7.10;6.40;;;;;;;1.14;94.54;100173.22;4994408;28;20525;-41
2021/12/24 12:29:32;;;;;;;5.90;5.60;;;;;;;1.14;93.88;100173.22;4994273;28;20442;-41
2021/12/24 12:32:26;;;;;;;7.73;5.07;;;;;;;1.06;93.99;100184.50;4993333;28;20469;-41
2021/12/24 12:34:58;;;;;;;4.90;4.70;;;;;;;1.08;94.11;100181.72;4994022;28;20508;-40
2021/12/24 12:37:29;;;;;;;4.47;4.17;;;;;;;1.07;94.26;100190.59;4994338;28;20464;-39
2021/12/24 12:40:03;;;;;;;4.53;4.20;;;;;;;0.96;93.66;100196.84;4994077;28;20426;-41
2021/12/24 12:43:06;;;;;;;4.90;4.50;;;;;;;0.86;93.13;100204.00;4993105;28;20465;-42
2021/12/24 12:46:01;;;;;;;3.87;3.67;;;;;;;0.83;93.37;100209.53;4962163;28;20438;-40
2021/12/24 12:48:50;;;;;;;5.07;4.67;;;;;;;0.75;93.93;100214.66;4993788;28;20457;-39
2021/12/24 12:51:42;;;;;;;4.80;4.60;;;;;;;0.78;94.11;100226.66;4993429;28;20433;-40
2021/12/24 12:54:29;;;;;;;4.37;4.17;;;;;;;0.77;94.49;100233.75;4993106;28;20450;-41
2021/12/24 12:57:12;;;;;;;3.93;3.70;;;;;;;0.67;93.89;100240.00;4993689;28;20446;-39